Overview Statistics Trail Chart Weather Telemetry Raw packets
 

This is the latest recevied weather packets stored in our database for station/object GBTWP-2. If no packets are shown the sender has not sent any weather packets the latest 10 day(s).

<< 106 107 108 109 110 111 112 >>
Time Temp. Humidity Pressure Rain* Wind** Luminosity Snow
1787875021 22.22° C 73% 1017.9 hPa 0 mm - 11 W/m² -
1787874720 22.22° C 73% 1018 hPa 0 mm - 15 W/m² -
1787874420 22.22° C 73% 1017.8 hPa 0 mm - 18 W/m² -
1787874120 22.22° C 74% 1017.8 hPa 0 mm - 23 W/m² -
1787873821 22.22° C 75% 1017.7 hPa 0 mm - 27 W/m² -
1787873520 22.22° C 76% 1017.7 hPa 0 mm - 29 W/m² -
1787873220 22.22° C 78% 1017.8 hPa 0 mm - 33 W/m² -
1787872920 21.67° C 79% 1017.6 hPa 0 mm - 26 W/m² -
1787872620 21.67° C 80% 1017.6 hPa 0 mm - 28 W/m² -
1787872319 22.22° C 82% 1017.6 hPa 0 mm - 29 W/m² -
1787872019 22.22° C 79% 1017.5 hPa 0 mm - 28 W/m² -
1787871717 22.78° C 77% 1017.5 hPa 0 mm - 37 W/m² -
1787871421 22.78° C 77% 1017.2 hPa 0 mm - 35 W/m² -
1787871117 23.33° C 73% 1017.5 hPa 0 mm - 36 W/m² -
1787870817 23.89° C 76% 1017.4 hPa 0 mm - 51 W/m² -
1787870520 23.33° C 78% 1017.5 hPa 0 mm - 142 W/m² -
1787870220 23.33° C 76% 1017.2 hPa 1.78 mm - 153 W/m² -
1787869920 23.89° C 74% 1017.6 hPa 1.78 mm - 53 W/m² -
1787869620 25° C 66% 1017.6 hPa 0 mm - 26 W/m² -
1787869320 25° C 61% 1017.4 hPa 0 mm - 21 W/m² -
1787869020 25° C 60% 1017.3 hPa 0 mm - 27 W/m² -
1787868720 25° C 61% 1017.3 hPa 0 mm - 48 W/m² -
1787868420 25° C 61% 1017.2 hPa 0 mm - 72 W/m² -
1787868120 25° C 60% 1017.2 hPa 0 mm - 77 W/m² -
1787867820 25° C 61% 1017.3 hPa 0 mm - 84 W/m² -

* Rain latest hour (hover to see other rain measurements)
** Current wind speed in m/s (hover to see current wind gust speed)